»·PEaware :: N402ER KSNA-KSBP

N402ER :: KSNA-KSBP

FLIGHT INFORMATION

Flight Status: Arrived
Operator: Privately registered:
United States
More flights under this callsign
Pilot: Anonymous 18083 (18083)
Aircraft: CESSNA 172 SKYHAWK
(C172)
More flights by this aircraft type
Origin: KSNA John Wayne-Orange Co
United States
Destination: KSBP San Luis Co Regl
United States
More flights between these airports :: More routes between these airports
Route: +ANAHM9 VTU V299 VTU V25 KSBP
File this flight plan on PilotEdge
Remarks: Sample flight plan
Altitude:
(Current/Filed)
12,000ft
Speed:
(Current/Filed)
150kts
Departed: 13-May-18 03:33 PM
Arrived: 13-May-18 05:11 PM
Distance/Time
Traveled:
161nm/1:38
Distance/Time
To Go:
Arrived

Flight Plot

Page will automatically refresh every two minutes.

Flight plan parsing failed; only flown route is shown


Map Options




Map Legend


Flown Route
Filed Route
Departure Airport
Arrival Airport
Navaid (VOR, NDB)
Fix

Horizontal Profiles

Position Reports

Time Latitude Longitude Heading Altitude Ground
Speed
13-May-18 15:22 33.672446 -117.867192 208 60ft 0kts
13-May-18 15:23 33.672446 -117.867192 208 60ft 0kts
13-May-18 15:24 33.672446 -117.867192 208 60ft 0kts
13-May-18 15:25 33.672446 -117.867192 208 60ft 0kts
13-May-18 15:26 33.672446 -117.867192 208 60ft 0kts
13-May-18 15:27 33.672446 -117.867192 208 60ft 0kts
13-May-18 15:28 33.672441 -117.867196 210 60ft 0kts
13-May-18 15:29 33.673771 -117.866697 29 60ft 2kts
13-May-18 15:30 33.674586 -117.866793 27 60ft 12kts
13-May-18 15:31 33.679436 -117.863699 38 60ft 15kts
13-May-18 15:32 33.679852 -117.864331 206 60ft 0kts
13-May-18 15:33 33.670319 -117.874666 271 433ft 72kts
13-May-18 15:34 33.686074 -117.886543 26 1223ft 89kts
13-May-18 15:35 33.698527 -117.902636 289 1890ft 77kts
13-May-18 15:36 33.710663 -117.923273 242 1988ft 102kts
13-May-18 15:37 33.695045 -117.945233 224 2147ft 79kts
13-May-18 15:38 33.687220 -117.966045 294 2452ft 86kts
13-May-18 15:39 33.701701 -117.985161 281 2962ft 69kts
13-May-18 15:40 33.708415 -118.004108 293 3590ft 58kts
13-May-18 15:41 33.717115 -118.022391 296 4104ft 69kts
13-May-18 15:42 33.728383 -118.044159 298 4614ft 83kts
13-May-18 15:43 33.741287 -118.068474 299 5117ft 89kts
13-May-18 15:44 33.754717 -118.093786 299 5616ft 90kts
13-May-18 15:45 33.768438 -118.119689 300 6002ft 100kts
13-May-18 15:46 33.784890 -118.150594 301 6003ft 109kts
13-May-18 15:47 33.800530 -118.180124 301 6006ft 103kts
13-May-18 15:48 33.815738 -118.208945 302 6008ft 101kts
13-May-18 15:49 33.830884 -118.237669 302 6010ft 101kts
13-May-18 15:50 33.846019 -118.266386 303 6012ft 102kts
13-May-18 15:51 33.861257 -118.295328 303 6015ft 104kts
13-May-18 15:52 33.877413 -118.326059 303 6017ft 111kts
13-May-18 15:53 33.894138 -118.357857 303 6017ft 113kts
13-May-18 15:54 33.910936 -118.389873 303 6017ft 113kts
13-May-18 15:55 33.927731 -118.421944 302 6017ft 113kts
13-May-18 15:56 33.940673 -118.456036 291 6016ft 112kts
13-May-18 15:57 33.951872 -118.491036 291 6016ft 111kts
13-May-18 15:58 33.962937 -118.525706 290 6016ft 110kts
13-May-18 15:59 33.973929 -118.560200 289 6016ft 110kts
13-May-18 16:00 33.984872 -118.594576 289 6017ft 110kts
13-May-18 16:01 33.995800 -118.628950 289 6017ft 109kts
13-May-18 16:02 34.006667 -118.663180 289 6020ft 110kts
13-May-18 16:03 34.017640 -118.697718 289 6021ft 110kts
13-May-18 16:04 34.028625 -118.732351 289 6022ft 110kts
13-May-18 16:05 34.039405 -118.766782 287 6024ft 110kts
13-May-18 16:06 34.048800 -118.801725 287 6025ft 109kts
13-May-18 16:07 34.058196 -118.836800 287 6026ft 109kts
13-May-18 16:08 34.067526 -118.871671 287 6026ft 109kts
13-May-18 16:09 34.076801 -118.906387 287 6026ft 108kts
13-May-18 16:10 34.086177 -118.941522 287 6008ft 110kts
13-May-18 16:11 34.095524 -118.976593 287 6007ft 109kts
13-May-18 16:12 34.104826 -119.011538 287 6006ft 109kts
13-May-18 16:13 34.114168 -119.046553 290 6004ft 109kts
13-May-18 16:14 34.130546 -119.077716 301 6003ft 110kts
13-May-18 16:15 34.147589 -119.108695 301 6001ft 110kts
13-May-18 16:16 34.164580 -119.139560 300 5999ft 110kts
13-May-18 16:17 34.181558 -119.170406 300 5998ft 110kts
13-May-18 16:18 34.198491 -119.201193 300 5998ft 110kts
13-May-18 16:19 34.215392 -119.231944 300 5998ft 110kts
13-May-18 16:20 34.232291 -119.262718 300 5998ft 109kts
13-May-18 16:21 34.249123 -119.293395 300 5999ft 109kts
13-May-18 16:22 34.265880 -119.323961 300 5999ft 109kts
13-May-18 16:23 34.282713 -119.354691 300 6000ft 109kts
13-May-18 16:24 34.299444 -119.385264 300 6010ft 109kts
13-May-18 16:25 34.316243 -119.415983 300 6012ft 109kts
13-May-18 16:26 34.333076 -119.446790 300 6015ft 110kts
13-May-18 16:27 34.349973 -119.477738 300 6017ft 110kts
13-May-18 16:28 34.366942 -119.508837 300 6021ft 110kts
13-May-18 16:29 34.383832 -119.539825 300 6024ft 110kts
13-May-18 16:30 34.400823 -119.571038 300 6025ft 111kts
13-May-18 16:31 34.417853 -119.602336 300 6026ft 111kts
13-May-18 16:32 34.434873 -119.633646 300 6025ft 111kts
13-May-18 16:33 34.451816 -119.664885 300 6028ft 111kts
13-May-18 16:34 34.468956 -119.696431 300 6028ft 112kts
13-May-18 16:35 34.486036 -119.727934 300 6028ft 112kts
13-May-18 16:36 34.503164 -119.759532 300 6027ft 112kts
13-May-18 16:37 34.527110 -119.783541 324 6026ft 114kts
13-May-18 16:38 34.554423 -119.803595 325 6024ft 114kts
13-May-18 16:39 34.581602 -119.823371 326 6023ft 114kts
13-May-18 16:40 34.608746 -119.843083 326 6021ft 113kts
13-May-18 16:41 34.635839 -119.862777 327 6019ft 113kts
13-May-18 16:42 34.662922 -119.882468 327 6018ft 113kts
13-May-18 16:43 34.689940 -119.902117 327 6016ft 113kts
13-May-18 16:44 34.716818 -119.921696 328 6015ft 113kts
13-May-18 16:45 34.744020 -119.941499 328 6012ft 114kts
13-May-18 16:46 34.771306 -119.961384 328 6011ft 114kts
13-May-18 16:47 34.798713 -119.981383 329 6009ft 115kts
13-May-18 16:48 34.826306 -120.001534 329 6008ft 116kts
13-May-18 16:49 34.853932 -120.021702 329 6009ft 115kts
13-May-18 16:50 34.881267 -120.041720 329 6011ft 114kts
13-May-18 16:51 34.908410 -120.061586 329 6012ft 113kts
13-May-18 16:52 34.935384 -120.081333 329 6014ft 112kts
13-May-18 16:53 34.962144 -120.100956 329 6015ft 112kts
13-May-18 16:54 34.988782 -120.120500 329 6016ft 111kts
13-May-18 16:55 35.015171 -120.139806 329 6018ft 110kts
13-May-18 16:56 35.035927 -120.166320 301 6019ft 112kts
13-May-18 16:57 35.050300 -120.199875 301 6022ft 111kts
13-May-18 16:58 35.064436 -120.233144 301 6000ft 111kts
13-May-18 16:59 35.078740 -120.266813 300 5848ft 117kts
13-May-18 17:00 35.093996 -120.302715 300 5334ft 120kts
13-May-18 17:01 35.108768 -120.337559 299 4841ft 115kts
13-May-18 17:02 35.121528 -120.373035 293 4339ft 113kts
13-May-18 17:03 35.133596 -120.408287 293 4003ft 108kts
13-May-18 17:04 35.145730 -120.441529 292 4004ft 108kts
13-May-18 17:05 35.159147 -120.476517 293 3709ft 121kts
13-May-18 17:06 35.174104 -120.514339 293 3201ft 124kts
13-May-18 17:07 35.188730 -120.551037 293 3006ft 113kts
13-May-18 17:08 35.203684 -120.583652 302 1913ft 98kts
13-May-18 17:09 35.217061 -120.605482 302 1041ft 75kts
13-May-18 17:10 35.228102 -120.625248 310 433ft 64kts
13-May-18 17:11 35.235854 -120.638378 304 197ft 19kts
13-May-18 17:12 35.237656 -120.639885 7 191ft 0kts
13-May-18 17:13 35.238591 -120.639598 90 192ft 0kts
13-May-18 17:14 35.238591 -120.639598 90 192ft 0kts
13-May-18 17:15 35.238591 -120.639598 90 192ft 0kts
13-May-18 17:16 33.673837 -117.866653 22 60ft 0kts
13-May-18 17:17 33.812371 -118.202565 302 6008ft 102kts
13-May-18 17:18 34.473445 -119.704704 300 6028ft 112kts
13-May-18 17:19 34.711871 -119.918097 328 6015ft 113kts
13-May-18 17:20 35.190287 -120.554855 294 2912ft 113kts

Navigation Log

Ident Type
Flight plan parsing failed, navigation log unavailable